Time;durP1;ratioP1;P1;durP2;ratioP2;P2;SDS_P1;SDS_P2;PMS_P1;PMS_P2;Temp;Humidity;BMP_temperature;BMP_pressure;BME280_temperature;BME280_humidity;BME280_pressure;Samples;Min_cycle;Max_cycle;Signal;HPM_P1;HPM_P2
2023/07/12 00:00:59;;;;;;;3.83;2.20;;;;;;;20.04;83.23;100622.81;3530790;40;20054;-64
2023/07/12 00:03:25;;;;;;;2.65;2.22;;;;;;;20.03;83.35;100625.72;3532962;40;20089;-63
2023/07/12 00:05:52;;;;;;;3.65;2.40;;;;;;;19.98;84.58;100628.97;3533410;40;20120;-66
2023/07/12 00:08:26;;;;;;;3.13;2.20;;;;;;;19.98;85.68;100626.22;3533727;40;20313;-64
2023/07/12 00:10:55;;;;;;;4.00;2.38;;;;;;;19.97;85.08;100621.78;3532696;40;20458;-65
2023/07/12 00:13:21;;;;;;;3.97;2.65;;;;;;;19.96;85.13;100625.53;3534623;40;20347;-65
2023/07/12 00:15:48;;;;;;;2.45;2.25;;;;;;;19.96;85.55;100630.97;3533166;40;20129;-64
2023/07/12 00:18:19;;;;;;;4.35;2.78;;;;;;;19.97;85.44;100654.50;3531223;40;20507;-64
2023/07/12 00:20:48;;;;;;;6.43;3.20;;;;;;;19.99;85.07;100659.81;3534903;40;20097;-64
2023/07/12 00:23:16;;;;;;;6.38;2.70;;;;;;;20.00;84.39;100676.03;3535378;40;20058;-64
2023/07/12 00:25:45;;;;;;;2.85;2.55;;;;;;;20.04;83.82;100682.88;3534746;40;20406;-64
2023/07/12 00:28:23;;;;;;;3.53;2.88;;;;;;;20.04;83.90;100676.56;3533815;40;20128;-64
2023/07/12 00:30:51;;;;;;;3.03;2.50;;;;;;;20.04;83.78;100682.00;3534735;40;20061;-64
2023/07/12 00:33:19;;;;;;;4.50;3.03;;;;;;;20.03;82.97;100689.34;3534936;40;20208;-64
2023/07/12 00:35:46;;;;;;;4.40;3.22;;;;;;;19.97;82.83;100691.84;3532409;40;20061;-64
2023/07/12 00:38:22;;;;;;;3.70;2.90;;;;;;;19.91;82.08;100699.66;3534708;40;20058;-65
2023/07/12 00:41:03;;;;;;;5.35;2.85;;;;;;;19.90;82.33;100702.56;3535283;40;20054;-64
2023/07/12 00:43:36;;;;;;;2.92;2.63;;;;;;;19.87;80.73;100708.31;3533888;40;20376;-64
2023/07/12 00:46:26;;;;;;;5.78;2.60;;;;;;;19.85;80.42;100702.16;3535956;40;20055;-64
2023/07/12 00:48:52;;;;;;;6.40;5.13;;;;;;;19.79;79.45;100711.84;3533927;40;20067;-65
2023/07/12 00:51:26;;;;;;;3.90;2.80;;;;;;;19.77;79.51;100702.97;3537377;40;20676;-65
2023/07/12 00:53:53;;;;;;;2.92;2.40;;;;;;;19.76;78.32;100708.56;3524303;40;20063;-64
2023/07/12 00:56:19;;;;;;;5.00;2.60;;;;;;;19.72;78.18;100713.47;3536511;40;20091;-64
2023/07/12 00:58:55;;;;;;;4.90;2.40;;;;;;;19.66;78.67;100706.81;3534077;40;20383;-64
2023/07/12 01:01:21;;;;;;;2.53;2.20;;;;;;;19.66;78.44;100728.63;3534318;40;20468;-64
2023/07/12 01:03:48;;;;;;;5.57;2.50;;;;;;;19.60;77.11;100729.22;3534054;40;20054;-64
2023/07/12 01:06:18;;;;;;;4.93;2.90;;;;;;;19.55;77.37;100726.09;3534813;40;20061;-65
2023/07/12 01:08:45;;;;;;;2.55;2.30;;;;;;;19.56;76.85;100733.25;3533874;40;20133;-65
2023/07/12 01:11:15;;;;;;;3.47;2.50;;;;;;;19.56;76.78;100748.75;3534040;40;20287;-65
2023/07/12 01:13:49;;;;;;;3.30;2.72;;;;;;;19.52;75.90;100692.81;3534215;40;20307;-65
2023/07/12 01:16:22;;;;;;;5.22;2.70;;;;;;;19.45;76.75;100692.59;3534049;40;20181;-65
2023/07/12 01:18:48;;;;;;;4.55;2.80;;;;;;;19.40;77.07;100673.09;3533319;40;20105;-65
2023/07/12 01:21:23;;;;;;;5.25;2.75;;;;;;;19.44;76.38;100702.66;3534462;40;20062;-64
2023/07/12 01:23:49;;;;;;;5.95;2.90;;;;;;;19.45;75.96;100704.34;3534246;40;20058;-64
2023/07/12 01:26:20;;;;;;;3.65;2.58;;;;;;;19.45;76.01;100698.03;3525917;40;20120;-64
2023/07/12 01:28:51;;;;;;;5.18;2.92;;;;;;;19.27;76.95;100672.63;3531858;40;20054;-65
2023/07/12 01:31:17;;;;;;;6.25;3.13;;;;;;;19.41;78.08;100713.84;3534086;40;20062;-64
2023/07/12 01:33:44;;;;;;;4.63;3.00;;;;;;;19.34;79.82;100690.09;3533961;40;20054;-63
2023/07/12 01:36:10;;;;;;;7.28;3.20;;;;;;;19.24;79.00;100693.72;3532009;40;20050;-63
2023/07/12 01:38:36;;;;;;;7.97;3.17;;;;;;;19.16;80.08;100707.28;3534891;40;20120;-63
2023/07/12 01:41:02;;;;;;;6.22;3.13;;;;;;;19.11;81.23;100712.31;3536321;40;20077;-63
2023/07/12 01:43:29;;;;;;;5.32;3.35;;;;;;;18.85;82.18;100645.97;3533049;40;20298;-63
2023/07/12 01:45:55;;;;;;;7.40;3.53;;;;;;;19.03;82.30;100671.38;3533230;40;20077;-63
2023/07/12 01:48:20;;;;;;;6.43;3.47;;;;;;;19.01;82.10;100667.94;3534607;40;20062;-62
2023/07/12 01:50:46;;;;;;;5.32;3.17;;;;;;;18.96;82.19;100667.53;3533268;40;20110;-63
2023/07/12 01:53:11;;;;;;;4.10;3.30;;;;;;;18.88;82.61;100672.91;3533767;40;20470;-63
2023/07/12 01:55:37;;;;;;;6.25;3.63;;;;;;;18.77;83.17;100682.13;3535599;40;20098;-63
2023/07/12 01:58:03;;;;;;;6.65;3.70;;;;;;;18.76;84.29;100677.69;3532754;40;20058;-63
2023/07/12 02:00:28;;;;;;;7.30;3.63;;;;;;;18.64;83.86;100652.50;3532961;40;20298;-63
2023/07/12 02:02:54;;;;;;;5.25;4.22;;;;;;;18.66;84.45;100669.53;3532665;40;20369;-63
2023/07/12 02:05:21;;;;;;;7.00;3.75;;;;;;;18.66;86.13;100655.09;3533939;40;20069;-62
2023/07/12 02:07:48;;;;;;;5.35;4.13;;;;;;;18.51;86.15;100649.28;3532637;40;20221;-62
2023/07/12 02:10:18;;;;;;;5.40;3.72;;;;;;;18.56;85.89;100641.53;3531876;40;20081;-62
2023/07/12 02:12:45;;;;;;;5.05;3.72;;;;;;;18.48;85.57;100611.47;3533416;40;20060;-63
2023/07/12 02:15:13;;;;;;;6.65;3.90;;;;;;;18.43;86.17;100627.41;3533069;40;20111;-64
2023/07/12 02:17:40;;;;;;;9.05;4.03;;;;;;;18.39;86.38;100704.91;3531401;40;20067;-64
2023/07/12 02:20:07;;;;;;;6.85;3.63;;;;;;;18.33;86.73;100709.94;3531944;40;20054;-64
2023/07/12 02:22:36;;;;;;;4.72;3.33;;;;;;;18.38;87.06;100708.63;3533732;40;20291;-63
2023/07/12 02:25:03;;;;;;;5.57;3.45;;;;;;;18.23;86.20;100700.09;3535338;40;20410;-64
2023/07/12 02:27:28;;;;;;;4.78;3.22;;;;;;;18.34;86.74;100713.53;3533320;40;20328;-64
2023/07/12 02:29:54;;;;;;;4.90;3.28;;;;;;;18.25;86.64;100666.28;3532348;40;20093;-64
2023/07/12 02:32:22;;;;;;;5.45;3.05;;;;;;;18.31;87.29;100660.25;3532474;40;20149;-64
2023/07/12 02:34:48;;;;;;;4.75;3.05;;;;;;;18.28;86.36;100682.31;3526526;40;20097;-64
2023/07/12 02:37:16;;;;;;;5.93;3.80;;;;;;;18.25;87.42;100690.78;3534021;40;20077;-64
2023/07/12 02:39:42;;;;;;;7.47;3.33;;;;;;;18.18;86.17;100684.22;3525900;40;20392;-64
2023/07/12 02:42:07;;;;;;;3.90;2.80;;;;;;;18.15;87.33;100679.06;3533688;40;20133;-63
2023/07/12 02:44:33;;;;;;;5.75;3.30;;;;;;;18.01;87.28;100679.50;3533406;40;20058;-63
2023/07/12 02:46:59;;;;;;;5.32;3.65;;;;;;;18.03;88.52;100683.81;3530485;40;20058;-63
2023/07/12 02:49:24;;;;;;;4.50;3.33;;;;;;;18.00;88.81;100692.25;3533335;40;20302;-64
2023/07/12 02:51:50;;;;;;;4.60;3.08;;;;;;;17.86;88.76;100660.94;3530029;40;20715;-64
2023/07/12 02:54:16;;;;;;;5.75;2.80;;;;;;;17.97;88.09;100675.38;3532166;40;20105;-64
2023/07/12 02:56:41;;;;;;;4.68;2.80;;;;;;;17.97;88.16;100678.94;3534454;40;20094;-64
2023/07/12 02:59:07;;;;;;;4.00;2.70;;;;;;;17.97;88.14;100686.25;3531352;40;20058;-65
2023/07/12 03:01:33;;;;;;;4.90;2.72;;;;;;;17.92;86.47;100680.38;3533327;40;20050;-64
2023/07/12 03:03:59;;;;;;;6.35;2.40;;;;;;;17.88;87.41;100679.81;3531783;40;20315;-64
2023/07/12 03:06:24;;;;;;;2.95;2.60;;;;;;;16.77;86.97;100504.56;3532913;40;20061;-64
2023/07/12 03:08:50;;;;;;;4.82;2.92;;;;;;;17.92;88.45;100697.59;3531925;40;20066;-65
2023/07/12 03:11:16;;;;;;;4.03;2.67;;;;;;;17.70;87.87;100665.25;3531455;40;20063;-64
2023/07/12 03:13:42;;;;;;;4.47;3.00;;;;;;;17.94;87.52;100705.59;3532243;40;20054;-64
2023/07/12 03:16:08;;;;;;;4.78;2.60;;;;;;;17.74;87.83;100678.41;3530995;40;20047;-64
2023/07/12 03:18:35;;;;;;;4.78;2.88;;;;;;;17.89;87.25;100702.44;3531325;40;20058;-65
2023/07/12 03:21:04;;;;;;;5.05;2.65;;;;;;;17.65;88.53;100668.38;3531180;40;20054;-64
2023/07/12 03:23:31;;;;;;;5.72;2.80;;;;;;;17.84;88.65;100706.47;3532768;40;20137;-65
2023/07/12 03:25:57;;;;;;;4.75;2.80;;;;;;;17.84;87.86;100700.16;3534337;40;20065;-65
2023/07/12 03:28:23;;;;;;;5.90;2.80;;;;;;;17.82;89.50;100707.59;3533485;40;20094;-64
2023/07/12 03:31:11;;;;;;;4.70;2.63;;;;;;;17.82;89.18;100719.34;3532100;40;20054;-64
2023/07/12 03:33:39;;;;;;;5.30;2.83;;;;;;;17.82;87.98;100719.34;3530212;40;20075;-64
2023/07/12 03:36:05;;;;;;;4.75;2.60;;;;;;;17.78;88.64;100717.91;3531442;40;20050;-64
2023/07/12 03:38:31;;;;;;;5.10;2.60;;;;;;;17.80;88.25;100732.22;3531623;40;20061;-64
2023/07/12 03:41:01;;;;;;;3.53;2.78;;;;;;;17.75;87.35;100739.91;3531604;40;20128;-65
2023/07/12 03:43:27;;;;;;;4.82;2.80;;;;;;;17.72;88.42;100736.63;3534151;40;20054;-64
2023/07/12 03:45:53;;;;;;;5.50;2.50;;;;;;;17.73;88.63;100736.50;3530886;40;20641;-65
2023/07/12 03:48:20;;;;;;;4.00;2.90;;;;;;;17.73;88.60;100741.94;3533528;40;20450;-64
2023/07/12 03:50:52;;;;;;;3.30;2.75;;;;;;;17.73;89.09;100743.78;3523293;40;20082;-65
2023/07/12 03:53:18;;;;;;;5.30;2.85;;;;;;;17.72;87.48;100734.75;3530605;40;20389;-65
2023/07/12 03:55:46;;;;;;;6.35;3.17;;;;;;;17.56;86.89;100726.31;3527774;40;20058;-65
2023/07/12 03:58:18;;;;;;;4.25;2.97;;;;;;;17.63;87.78;100743.78;3530445;40;20058;-65
2023/07/12 04:00:48;;;;;;;4.70;3.05;;;;;;;17.64;87.43;100738.22;3531524;40;20340;-65
2023/07/12 04:03:14;;;;;;;6.30;3.35;;;;;;;17.52;86.91;100722.19;3530925;40;20059;-65
2023/07/12 04:05:43;;;;;;;3.92;3.30;;;;;;;17.60;87.27;100754.94;3531710;40;20132;-66
2023/07/12 04:08:12;;;;;;;4.53;3.10;;;;;;;17.59;87.50;100745.06;3530229;40;20054;-65
2023/07/12 04:10:38;;;;;;;5.35;3.72;;;;;;;17.62;87.91;100750.22;3531688;40;20054;-65
2023/07/12 04:13:04;;;;;;;5.88;3.42;;;;;;;17.65;87.22;100749.94;3529950;40;20058;-66
2023/07/12 04:15:31;;;;;;;3.83;3.03;;;;;;;17.57;87.13;100747.06;3534108;40;20071;-66
2023/07/12 04:17:56;;;;;;;5.25;3.30;;;;;;;17.62;86.72;100751.06;3528907;40;20059;-66
2023/07/12 04:20:22;;;;;;;5.68;3.00;;;;;;;17.66;87.43;100761.66;3524685;40;20129;-66
2023/07/12 04:22:50;;;;;;;6.80;3.58;;;;;;;17.60;86.08;100763.97;3530814;40;20455;-65
2023/07/12 04:25:16;;;;;;;5.53;2.83;;;;;;;17.60;86.58;100760.38;3532590;40;20073;-66
2023/07/12 04:27:41;;;;;;;3.28;2.88;;;;;;;17.46;86.65;100739.91;3533409;40;20086;-66
2023/07/12 04:30:12;;;;;;;8.20;3.50;;;;;;;17.60;86.01;100753.09;3534749;40;20062;-66
2023/07/12 04:32:39;;;;;;;6.10;2.95;;;;;;;17.58;86.22;100749.66;3530177;40;20082;-66
2023/07/12 04:35:05;;;;;;;5.22;3.05;;;;;;;17.63;87.19;100747.38;3530985;40;20507;-65
2023/07/12 04:37:31;;;;;;;5.53;2.92;;;;;;;17.62;86.37;100755.66;3531549;40;20484;-65
2023/07/12 04:39:57;;;;;;;5.18;2.92;;;;;;;17.64;86.70;100764.53;3529055;40;20133;-65
2023/07/12 04:42:23;;;;;;;5.60;2.83;;;;;;;17.64;86.24;100753.66;3532733;40;20046;-65
2023/07/12 04:44:48;;;;;;;7.93;2.88;;;;;;;17.67;86.90;100757.97;3531838;40;20604;-65
2023/07/12 04:47:17;;;;;;;5.43;2.80;;;;;;;17.20;86.29;100679.81;3530943;40;20123;-65
2023/07/12 04:49:44;;;;;;;7.63;3.00;;;;;;;17.66;85.83;100756.22;3530655;40;20145;-65
2023/07/12 04:52:13;;;;;;;9.02;3.00;;;;;;;17.62;85.49;100750.22;3530855;40;20054;-65
2023/07/12 04:54:41;;;;;;;5.93;2.85;;;;;;;17.57;86.22;100752.50;3530048;40;20436;-65
2023/07/12 04:57:07;;;;;;;3.58;2.22;;;;;;;17.47;86.44;100741.63;3534048;40;20054;-65
2023/07/12 04:59:35;;;;;;;7.60;3.08;;;;;;;17.57;85.76;100757.94;3530959;40;20054;-65
2023/07/12 05:02:01;;;;;;;7.70;3.20;;;;;;;17.58;86.39;100759.66;3531613;40;20069;-64
2023/07/12 05:04:27;;;;;;;5.03;2.80;;;;;;;17.56;85.52;100758.94;3532255;40;20051;-65
2023/07/12 05:06:52;;;;;;;5.13;2.65;;;;;;;17.56;86.05;100759.78;3531243;40;20467;-65
2023/07/12 05:09:20;;;;;;;5.50;2.28;;;;;;;17.56;85.68;100759.78;3531402;40;20402;-64
2023/07/12 05:11:48;;;;;;;6.60;2.88;;;;;;;17.55;86.45;100766.25;3532859;40;20060;-65
2023/07/12 05:14:14;;;;;;;7.50;2.90;;;;;;;17.58;85.84;100775.97;3533961;40;20058;-64
2023/07/12 05:16:39;;;;;;;5.43;2.72;;;;;;;17.62;85.75;100778.25;3531367;40;20057;-65
2023/07/12 05:19:05;;;;;;;6.13;2.92;;;;;;;17.73;85.70;100781.84;3520937;40;20736;-65
2023/07/12 05:21:31;;;;;;;8.82;3.17;;;;;;;17.76;84.93;100784.28;3534500;40;20072;-66
2023/07/12 05:23:57;;;;;;;6.18;2.85;;;;;;;17.81;84.65;100791.03;3524236;40;20287;-66
2023/07/12 05:26:22;;;;;;;8.27;2.90;;;;;;;17.85;84.61;100789.75;3534963;40;20151;-65
2023/07/12 05:28:48;;;;;;;6.65;2.60;;;;;;;17.91;84.67;100798.34;3530788;40;20306;-65
2023/07/12 05:31:15;;;;;;;8.90;3.38;;;;;;;17.93;83.84;100793.63;3531707;40;20389;-65
2023/07/12 05:33:45;;;;;;;8.10;3.38;;;;;;;17.93;84.58;100794.50;3530896;40;20056;-66
2023/07/12 05:36:13;;;;;;;8.00;2.72;;;;;;;18.01;84.89;100794.59;3530696;40;20418;-65
2023/07/12 05:38:38;;;;;;;4.97;2.50;;;;;;;18.01;82.86;100791.88;3531560;40;20140;-66
2023/07/12 05:41:05;;;;;;;5.70;2.65;;;;;;;18.01;83.83;100793.75;3533454;40;20057;-64
2023/07/12 05:43:30;;;;;;;5.32;2.53;;;;;;;17.96;83.41;100796.06;3532609;40;20050;-65
2023/07/12 05:45:59;;;;;;;8.85;2.70;;;;;;;17.85;82.52;100784.31;3530695;40;20381;-65
2023/07/12 05:48:26;;;;;;;6.70;2.83;;;;;;;17.90;83.65;100802.06;3521992;40;20051;-65
2023/07/12 05:50:56;;;;;;;5.90;2.97;;;;;;;17.81;83.89;100787.47;3528893;40;20073;-66
2023/07/12 05:53:21;;;;;;;8.13;3.08;;;;;;;17.92;84.06;100800.94;3532004;40;20065;-66
2023/07/12 05:55:47;;;;;;;6.57;2.80;;;;;;;17.93;83.44;100797.22;3533993;40;20078;-65
2023/07/12 05:58:13;;;;;;;8.20;2.90;;;;;;;17.79;83.55;100760.44;3530472;40;20074;-65
2023/07/12 06:00:39;;;;;;;8.30;3.38;;;;;;;17.99;83.70;100802.06;3530846;40;20302;-65
2023/07/12 06:03:05;;;;;;;6.80;2.65;;;;;;;18.07;83.64;100810.34;3530506;40;20050;-65
2023/07/12 06:05:32;;;;;;;6.38;3.10;;;;;;;18.12;83.42;100811.81;3530835;40;20394;-65
2023/07/12 06:07:58;;;;;;;6.32;2.72;;;;;;;18.17;81.67;100809.50;3533647;40;20062;-66
2023/07/12 06:10:24;;;;;;;9.27;3.33;;;;;;;18.24;82.35;100814.22;3532662;40;20136;-65
2023/07/12 06:12:50;;;;;;;6.40;3.10;;;;;;;18.29;81.69;100813.78;3531059;40;20080;-65
2023/07/12 06:15:15;;;;;;;6.20;2.63;;;;;;;18.33;81.04;100816.09;3529975;40;20062;-65
2023/07/12 06:17:43;;;;;;;9.20;3.03;;;;;;;18.41;79.69;100807.19;3530606;40;20214;-65
2023/07/12 06:20:09;;;;;;;7.95;3.05;;;;;;;18.42;79.30;100808.88;3530307;40;20337;-66
2023/07/12 06:22:35;;;;;;;5.68;2.58;;;;;;;18.54;81.50;100805.00;3530861;40;20453;-66
2023/07/12 06:25:00;;;;;;;6.28;2.55;;;;;;;18.68;79.31;100809.13;3532282;40;20062;-65
2023/07/12 06:27:26;;;;;;;7.32;2.83;;;;;;;18.76;78.42;100812.00;3533409;40;20055;-65
2023/07/12 06:29:52;;;;;;;6.45;2.85;;;;;;;18.77;78.19;100816.44;3530150;40;20073;-66
2023/07/12 06:32:17;;;;;;;7.40;3.00;;;;;;;18.87;77.18;100823.72;3530269;40;20062;-66
2023/07/12 06:34:43;;;;;;;6.15;2.92;;;;;;;18.89;77.41;100832.59;3520498;40;20054;-65
2023/07/12 06:37:09;;;;;;;7.15;2.80;;;;;;;18.99;76.53;100844.31;3530311;40;20405;-65
2023/07/12 06:39:38;;;;;;;4.97;2.63;;;;;;;19.05;77.07;100849.16;3529980;40;20055;-66
2023/07/12 06:42:04;;;;;;;6.45;2.78;;;;;;;19.07;76.08;100855.34;3530773;40;20072;-66
2023/07/12 06:44:30;;;;;;;6.15;2.92;;;;;;;19.08;76.86;100846.16;3529761;40;20057;-65
2023/07/12 06:46:56;;;;;;;5.53;2.95;;;;;;;19.12;76.79;100855.72;3529778;40;20373;-66
2023/07/12 06:49:21;;;;;;;6.53;3.08;;;;;;;19.13;75.59;100862.91;3530048;40;20290;-66
2023/07/12 06:51:47;;;;;;;6.50;2.75;;;;;;;19.17;74.95;100864.31;3530738;40;20073;-65
2023/07/12 06:54:15;;;;;;;6.00;2.85;;;;;;;19.20;75.09;100866.75;3529442;40;20298;-65
2023/07/12 06:56:40;;;;;;;7.28;2.80;;;;;;;19.24;74.00;100876.34;3532295;40;20112;-65
2023/07/12 06:59:07;;;;;;;5.65;2.40;;;;;;;19.22;74.59;100874.78;3529403;40;20050;-65
2023/07/12 07:01:33;;;;;;;7.28;2.60;;;;;;;19.24;74.98;100865.44;3529952;40;20075;-65
2023/07/12 07:03:59;;;;;;;7.05;3.10;;;;;;;19.29;74.59;100884.06;3529436;40;20429;-65
2023/07/12 07:06:25;;;;;;;7.50;2.78;;;;;;;19.30;74.15;100893.97;3529958;40;20057;-65
2023/07/12 07:08:51;;;;;;;6.47;2.67;;;;;;;19.28;73.99;100885.06;3532209;40;20074;-65
2023/07/12 07:11:17;;;;;;;8.52;3.03;;;;;;;19.33;74.06;100890.09;3530475;40;20115;-65
2023/07/12 07:13:43;;;;;;;8.10;3.08;;;;;;;19.41;73.77;100888.34;3529930;40;20180;-65
2023/07/12 07:16:10;;;;;;;7.18;3.10;;;;;;;19.54;73.31;100877.06;3529388;40;20050;-65
2023/07/12 07:18:36;;;;;;;9.18;2.60;;;;;;;19.66;72.91;100881.34;3529426;40;20141;-65
2023/07/12 07:21:03;;;;;;;7.30;2.88;;;;;;;19.78;72.99;100879.25;3530290;40;20062;-65
2023/07/12 07:23:29;;;;;;;8.32;2.65;;;;;;;19.87;70.76;100894.69;3529281;40;20058;-66
2023/07/12 07:26:05;;;;;;;6.22;2.40;;;;;;;19.78;69.79;100870.22;3533919;40;20468;-65
2023/07/12 07:28:31;;;;;;;6.00;2.50;;;;;;;19.86;68.65;100879.34;3530426;40;20428;-64
2023/07/12 07:30:58;;;;;;;6.35;2.60;;;;;;;19.96;69.14;100909.28;3529064;40;20067;-65
2023/07/12 07:33:25;;;;;;;6.80;2.60;;;;;;;20.01;69.15;100915.13;3530117;40;20062;-65
2023/07/12 07:35:51;;;;;;;5.85;2.30;;;;;;;20.02;69.55;100919.59;3529170;40;20145;-64
2023/07/12 07:38:16;;;;;;;7.45;2.25;;;;;;;20.00;69.28;100916.16;3528581;40;20058;-65
2023/07/12 07:40:43;;;;;;;5.53;2.35;;;;;;;19.95;68.78;100923.97;3529488;40;20106;-65
2023/07/12 07:43:13;;;;;;;6.53;2.58;;;;;;;19.92;69.25;100924.25;3531413;40;20061;-64
2023/07/12 07:45:41;;;;;;;6.95;2.40;;;;;;;20.00;69.56;100916.16;3529101;40;20114;-64
2023/07/12 07:48:07;;;;;;;5.53;2.58;;;;;;;20.08;68.88;100916.25;3531382;40;20054;-64
2023/07/12 07:50:32;;;;;;;4.10;2.22;;;;;;;20.22;68.50;100919.44;3527628;40;20069;-64
2023/07/12 07:52:58;;;;;;;5.30;2.42;;;;;;;20.30;67.89;100925.88;3528674;40;20066;-65
2023/07/12 07:55:24;;;;;;;6.28;2.17;;;;;;;20.42;67.13;100926.47;3533082;40;20076;-65
2023/07/12 07:57:50;;;;;;;5.63;2.60;;;;;;;20.50;66.82;100923.81;3528671;40;21455;-64
2023/07/12 08:00:16;;;;;;;5.60;2.35;;;;;;;20.68;66.46;100940.25;3531465;40;20057;-65
2023/07/12 08:02:43;;;;;;;4.82;2.63;;;;;;;20.64;65.52;100930.63;3529854;40;20053;-64
2023/07/12 08:05:12;;;;;;;7.07;2.50;;;;;;;20.55;64.92;100932.44;3528642;40;20061;-65
2023/07/12 08:07:43;;;;;;;6.85;2.25;;;;;;;20.48;65.96;100925.84;3528119;40;20046;-64
2023/07/12 08:10:14;;;;;;;5.80;2.35;;;;;;;20.56;65.91;100953.28;3533134;40;20301;-64
2023/07/12 08:12:40;;;;;;;7.43;2.75;;;;;;;20.47;64.34;100943.25;3529780;40;20058;-64
2023/07/12 08:15:07;;;;;;;3.92;2.20;;;;;;;20.42;65.31;100945.56;3531181;40;20092;-64
2023/07/12 08:17:33;;;;;;;6.38;2.42;;;;;;;20.36;65.78;100941.63;3529341;40;20144;-64
2023/07/12 08:19:58;;;;;;;6.93;2.67;;;;;;;20.34;66.55;100951.81;3530610;40;20058;-64
2023/07/12 08:22:25;;;;;;;5.65;2.75;;;;;;;20.27;66.60;100938.97;3532090;40;20069;-64
2023/07/12 08:24:53;;;;;;;7.35;2.65;;;;;;;20.28;66.54;100952.44;3532317;40;20137;-64
2023/07/12 08:27:19;;;;;;;9.15;3.03;;;;;;;20.32;67.08;100958.44;3532248;40;20547;-64
2023/07/12 08:29:45;;;;;;;5.22;2.42;;;;;;;20.33;67.00;100963.78;3533405;40;20070;-64
2023/07/12 08:32:11;;;;;;;7.65;2.72;;;;;;;20.40;66.89;100958.56;3531740;40;20061;-64
2023/07/12 08:34:38;;;;;;;4.78;2.40;;;;;;;20.40;67.04;100955.81;3532826;40;20043;-64
2023/07/12 08:37:05;;;;;;;6.47;2.70;;;;;;;19.95;66.58;100885.75;3532532;40;20060;-65
2023/07/12 08:39:31;;;;;;;5.35;2.33;;;;;;;20.43;66.80;100954.66;3532509;40;20456;-64
2023/07/12 08:41:58;;;;;;;5.97;2.33;;;;;;;20.43;66.30;100958.25;3534725;40;20089;-64
2023/07/12 08:44:24;;;;;;;8.65;2.63;;;;;;;20.48;65.68;100958.59;3534008;40;20088;-64
2023/07/12 08:46:57;;;;;;;7.72;2.50;;;;;;;20.57;65.35;100963.16;3535012;40;20339;-64
2023/07/12 08:49:25;;;;;;;;;;;;;;;20.57;65.18;100954.97;3532826;40;20381;-64
2023/07/12 08:51:59;;;;;;;6.30;2.50;;;;;;;20.43;64.77;100932.81;3535457;40;20017;-64
2023/07/12 08:54:35;;;;;;;8.10;2.65;;;;;;;20.80;63.37;100977.19;3527244;40;20084;-64
2023/07/12 08:57:23;;;;;;;5.45;2.25;;;;;;;20.85;63.26;100979.47;3533604;40;20094;-65
2023/07/12 09:00:07;;;;;;;5.43;2.78;;;;;;;20.93;62.89;100965.88;3532804;40;20062;-64
2023/07/12 09:02:35;;;;;;;7.05;2.95;;;;;;;21.05;63.23;100971.94;3534076;40;20062;-63
2023/07/12 09:05:17;;;;;;;6.18;2.75;;;;;;;21.16;63.13;100979.88;3533874;40;20050;-64
2023/07/12 09:07:56;;;;;;;6.82;2.42;;;;;;;21.46;62.89;100975.81;3534984;40;20060;-64
2023/07/12 09:10:49;;;;;;;6.50;2.50;;;;;;;21.99;62.11;100982.94;3522991;40;20065;-64
2023/07/12 09:13:17;;;;;;;4.97;2.50;;;;;;;22.21;59.37;100980.63;3533970;40;20515;-64
2023/07/12 09:15:46;;;;;;;6.32;2.35;;;;;;;22.30;59.06;100974.16;3534521;40;20265;-64
2023/07/12 09:18:45;;;;;;;6.50;2.50;;;;;;;22.42;58.76;100972.81;3534452;40;20058;-63
2023/07/12 09:21:19;;;;;;;6.38;2.40;;;;;;;22.60;58.43;100971.81;3533029;40;20297;-63
2023/07/12 09:23:45;;;;;;;5.82;2.53;;;;;;;22.57;56.84;100970.25;3537173;40;20055;-63
2023/07/12 09:26:24;;;;;;;6.47;2.83;;;;;;;22.57;55.23;100967.50;3537356;40;20061;-63
2023/07/12 09:28:57;;;;;;;4.55;2.70;;;;;;;22.46;54.17;100957.75;3537558;40;20506;-63
2023/07/12 09:31:28;;;;;;;4.93;2.40;;;;;;;22.68;54.46;100978.16;3536577;40;20062;-62
2023/07/12 09:34:03;;;;;;;6.55;2.15;;;;;;;22.93;54.87;100965.34;3535411;40;20089;-62
2023/07/12 09:36:29;;;;;;;3.90;2.13;;;;;;;23.11;54.78;100969.78;3538112;40;20122;-63
2023/07/12 09:39:05;;;;;;;4.50;2.17;;;;;;;23.12;54.10;100955.03;3535411;40;20066;-62
2023/07/12 09:41:31;;;;;;;7.75;2.28;;;;;;;23.31;55.83;100949.19;3533607;40;20054;-63
2023/07/12 09:44:00;;;;;;;6.07;2.17;;;;;;;23.67;54.21;100954.22;3535212;40;20050;-62
2023/07/12 09:46:46;;;;;;;5.18;1.88;;;;;;;23.66;53.07;100955.25;3534905;40;20136;-63
2023/07/12 09:49:18;;;;;;;5.85;1.88;;;;;;;23.53;54.21;100960.41;3533886;40;20186;-63
2023/07/12 09:52:02;;;;;;;5.80;2.28;;;;;;;23.44;53.90;100961.47;3536821;40;20068;-63
2023/07/12 09:54:46;;;;;;;4.55;2.25;;;;;;;23.64;54.40;100951.81;3533679;40;20082;-63
2023/07/12 09:57:30;;;;;;;5.97;2.30;;;;;;;23.95;52.43;100942.81;3532464;40;20314;-63
2023/07/12 10:00:31;;;;;;;4.53;1.90;;;;;;;24.09;52.19;100950.25;3531868;40;20227;-62
2023/07/12 10:03:35;;;;;;;11.00;1.80;;;;;;;24.25;51.30;100939.19;3534347;40;20070;-62
2023/07/12 10:06:42;;;;;;;6.05;1.83;;;;;;;24.05;51.50;100941.53;3532250;40;20089;-63
2023/07/12 10:09:26;;;;;;;6.25;2.20;;;;;;;24.00;50.33;100945.84;3531778;40;20062;-63
2023/07/12 10:12:18;;;;;;;6.22;1.92;;;;;;;24.27;50.80;100952.75;3535225;40;20054;-63
2023/07/12 10:14:47;;;;;;;6.20;1.88;;;;;;;24.44;49.29;100942.53;3532733;40;20391;-63
2023/07/12 10:17:40;;;;;;;5.43;2.08;;;;;;;24.31;48.53;100949.44;3525961;40;20662;-64
2023/07/12 10:20:17;;;;;;;4.72;2.10;;;;;;;24.49;49.18;100940.09;3531701;40;20066;-63
2023/07/12 10:22:45;;;;;;;3.63;1.75;;;;;;;24.79;50.54;100941.03;3533601;40;20337;-63
2023/07/12 10:25:38;;;;;;;4.35;2.30;;;;;;;24.87;47.39;100942.88;3532620;40;20053;-63
2023/07/12 10:28:33;;;;;;;6.07;1.77;;;;;;;24.42;47.88;100941.84;3532206;40;20057;-63
2023/07/12 10:31:27;;;;;;;6.63;2.00;;;;;;;24.12;49.60;100944.41;3531233;40;20066;-63
2023/07/12 10:34:07;;;;;;;5.22;2.00;;;;;;;24.16;50.84;100950.41;3533325;40;20073;-62
2023/07/12 10:36:37;;;;;;;5.50;1.75;;;;;;;24.40;49.49;100936.50;3532697;40;20061;-63
2023/07/12 10:39:05;;;;;;;3.97;1.80;;;;;;;24.62;48.76;100944.97;3531399;40;20066;-62
2023/07/12 10:41:44;;;;;;;4.47;1.70;;;;;;;24.92;49.24;100941.25;3532317;40;20062;-63
2023/07/12 10:44:45;;;;;;;5.32;1.77;;;;;;;25.19;46.37;100952.75;3531384;40;20216;-63
2023/07/12 10:47:19;;;;;;;5.68;1.98;;;;;;;25.47;47.89;100950.22;3521641;40;20317;-62
2023/07/12 10:49:52;;;;;;;;;;;;;;;25.74;45.46;100951.41;3532114;40;20457;-63
2023/07/12 10:52:29;;;;;;;4.25;1.77;;;;;;;25.94;45.64;100954.47;3533538;40;19985;-63
2023/07/12 10:55:35;;;;;;;5.25;1.80;;;;;;;26.00;44.77;100956.44;3532249;40;20129;-62
2023/07/12 10:58:45;;;;;;;3.17;1.67;;;;;;;25.74;45.49;100945.06;3530531;40;20054;-63
2023/07/12 11:01:40;;;;;;;4.15;1.50;;;;;;;25.51;45.52;100954.28;3529620;40;20116;-62
2023/07/12 11:04:15;;;;;;;4.45;2.17;;;;;;;25.37;44.85;100950.50;3532021;40;20165;-62
2023/07/12 11:07:24;;;;;;;7.05;1.70;;;;;;;25.33;46.40;100951.88;3531519;40;20061;-62
2023/07/12 11:09:50;;;;;;;6.38;1.48;;;;;;;25.22;44.77;100958.72;3529777;40;20051;-62
2023/07/12 11:12:28;;;;;;;5.47;1.98;;;;;;;25.00;45.15;100954.09;3533796;40;20061;-62
2023/07/12 11:15:25;;;;;;;4.95;1.98;;;;;;;25.21;45.98;100948.78;3532699;40;20094;-62
2023/07/12 11:18:09;;;;;;;6.18;1.73;;;;;;;25.60;45.09;100950.41;3530742;40;20065;-62
2023/07/12 11:21:01;;;;;;;4.95;1.73;;;;;;;25.87;43.82;100946.13;3531168;40;20318;-63
2023/07/12 11:23:46;;;;;;;3.47;1.60;;;;;;;26.03;43.44;100934.03;3533393;40;20059;-63
2023/07/12 11:26:35;;;;;;;4.97;1.55;;;;;;;26.00;42.46;100948.19;3530346;40;20140;-63
2023/07/12 11:29:32;;;;;;;2.83;1.27;;;;;;;26.23;42.21;100933.38;3530994;40;20054;-62
2023/07/12 11:32:29;;;;;;;5.85;1.60;;;;;;;26.57;42.51;100952.88;3531746;40;20312;-63
2023/07/12 11:35:12;;;;;;;3.38;1.50;;;;;;;26.97;42.37;100946.88;3532564;40;20050;-63
2023/07/12 11:37:45;;;;;;;2.63;1.38;;;;;;;27.05;40.43;100957.75;3530997;40;20467;-62
2023/07/12 11:40:22;;;;;;;3.88;1.38;;;;;;;27.08;41.11;100960.13;3530241;40;20223;-62
2023/07/12 11:42:48;;;;;;;7.15;1.83;;;;;;;26.95;41.67;100966.38;3531670;40;20058;-63